sensor_id;sensor_type;location;lat;lon;timestamp;temperature;humidity
35531;DHT22;21637;53.352;-6.356;2023-06-22T00:01:02;15.90;99.90
35531;DHT22;21637;53.352;-6.356;2023-06-22T00:03:27;15.90;99.90
35531;DHT22;21637;53.352;-6.356;2023-06-22T00:05:53;15.90;99.90
35531;DHT22;21637;53.352;-6.356;2023-06-22T00:08:19;16.00;99.90
35531;DHT22;21637;53.352;-6.356;2023-06-22T00:10:46;16.10;99.90
35531;DHT22;21637;53.352;-6.356;2023-06-22T00:13:13;16.00;99.90
35531;DHT22;21637;53.352;-6.356;2023-06-22T00:15:40;15.90;99.90
35531;DHT22;21637;53.352;-6.356;2023-06-22T00:18:08;15.80;99.90
35531;DHT22;21637;53.352;-6.356;2023-06-22T00:20:34;15.70;99.90
35531;DHT22;21637;53.352;-6.356;2023-06-22T00:23:03;15.70;99.90
35531;DHT22;21637;53.352;-6.356;2023-06-22T00:25:36;15.50;99.90
35531;DHT22;21637;53.352;-6.356;2023-06-22T00:28:02;15.50;99.90
35531;DHT22;21637;53.352;-6.356;2023-06-22T00:30:30;15.50;99.90
35531;DHT22;21637;53.352;-6.356;2023-06-22T00:32:56;15.40;99.90
35531;DHT22;21637;53.352;-6.356;2023-06-22T00:35:21;15.30;99.90
35531;DHT22;21637;53.352;-6.356;2023-06-22T00:37:47;15.30;99.90
35531;DHT22;21637;53.352;-6.356;2023-06-22T00:40:13;15.30;99.90
35531;DHT22;21637;53.352;-6.356;2023-06-22T00:42:40;15.30;99.90
35531;DHT22;21637;53.352;-6.356;2023-06-22T00:45:07;15.30;99.90
35531;DHT22;21637;53.352;-6.356;2023-06-22T00:47:36;15.20;99.90
35531;DHT22;21637;53.352;-6.356;2023-06-22T00:50:05;15.20;99.90
35531;DHT22;21637;53.352;-6.356;2023-06-22T00:52:33;15.20;99.90
35531;DHT22;21637;53.352;-6.356;2023-06-22T00:55:02;15.10;99.90
35531;DHT22;21637;53.352;-6.356;2023-06-22T00:57:28;15.00;99.90
35531;DHT22;21637;53.352;-6.356;2023-06-22T00:59:54;14.90;99.90
35531;DHT22;21637;53.352;-6.356;2023-06-22T01:02:20;15.00;99.90
35531;DHT22;21637;53.352;-6.356;2023-06-22T01:04:46;14.90;99.90
35531;DHT22;21637;53.352;-6.356;2023-06-22T01:10:04;14.70;99.90
35531;DHT22;21637;53.352;-6.356;2023-06-22T01:12:37;14.50;99.90
35531;DHT22;21637;53.352;-6.356;2023-06-22T01:17:57;14.30;99.90
35531;DHT22;21637;53.352;-6.356;2023-06-22T01:20:25;14.20;99.90
35531;DHT22;21637;53.352;-6.356;2023-06-22T01:23:21;14.30;99.90
35531;DHT22;21637;53.352;-6.356;2023-06-22T01:25:57;14.30;99.90
35531;DHT22;21637;53.352;-6.356;2023-06-22T01:31:12;14.10;99.90
35531;DHT22;21637;53.352;-6.356;2023-06-22T01:33:42;14.10;99.90
35531;DHT22;21637;53.352;-6.356;2023-06-22T01:36:09;14.20;99.90
35531;DHT22;21637;53.352;-6.356;2023-06-22T01:38:35;14.20;99.90
35531;DHT22;21637;53.352;-6.356;2023-06-22T01:41:02;14.20;99.90
35531;DHT22;21637;53.352;-6.356;2023-06-22T01:43:29;14.30;99.90
35531;DHT22;21637;53.352;-6.356;2023-06-22T01:45:57;14.30;99.90
35531;DHT22;21637;53.352;-6.356;2023-06-22T01:48:23;14.20;99.90
35531;DHT22;21637;53.352;-6.356;2023-06-22T01:50:49;14.20;99.90
35531;DHT22;21637;53.352;-6.356;2023-06-22T01:53:15;14.10;99.90
35531;DHT22;21637;53.352;-6.356;2023-06-22T01:55:41;14.10;99.90
35531;DHT22;21637;53.352;-6.356;2023-06-22T01:58:06;14.10;99.90
35531;DHT22;21637;53.352;-6.356;2023-06-22T02:00:36;14.20;99.90
35531;DHT22;21637;53.352;-6.356;2023-06-22T02:03:17;14.20;99.90
35531;DHT22;21637;53.352;-6.356;2023-06-22T02:05:54;14.00;99.90
35531;DHT22;21637;53.352;-6.356;2023-06-22T02:08:28;13.90;99.90
35531;DHT22;21637;53.352;-6.356;2023-06-22T02:10:56;13.90;99.90
35531;DHT22;21637;53.352;-6.356;2023-06-22T02:13:24;13.80;99.90
35531;DHT22;21637;53.352;-6.356;2023-06-22T02:15:51;13.70;99.90
35531;DHT22;21637;53.352;-6.356;2023-06-22T02:18:17;13.60;99.90
35531;DHT22;21637;53.352;-6.356;2023-06-22T02:20:42;13.60;99.90
35531;DHT22;21637;53.352;-6.356;2023-06-22T02:23:08;13.70;99.90
35531;DHT22;21637;53.352;-6.356;2023-06-22T02:25:35;13.70;99.90
35531;DHT22;21637;53.352;-6.356;2023-06-22T02:28:02;13.70;99.90
35531;DHT22;21637;53.352;-6.356;2023-06-22T02:30:27;13.80;99.90
35531;DHT22;21637;53.352;-6.356;2023-06-22T02:32:53;13.90;99.90
35531;DHT22;21637;53.352;-6.356;2023-06-22T02:35:28;14.00;99.90
35531;DHT22;21637;53.352;-6.356;2023-06-22T02:38:01;14.10;99.90
35531;DHT22;21637;53.352;-6.356;2023-06-22T02:40:28;14.10;99.90
35531;DHT22;21637;53.352;-6.356;2023-06-22T02:42:55;14.00;99.90
35531;DHT22;21637;53.352;-6.356;2023-06-22T02:45:21;13.90;99.90
35531;DHT22;21637;53.352;-6.356;2023-06-22T02:47:46;13.90;99.90
35531;DHT22;21637;53.352;-6.356;2023-06-22T02:50:13;13.80;99.90
35531;DHT22;21637;53.352;-6.356;2023-06-22T02:52:39;13.60;99.90
35531;DHT22;21637;53.352;-6.356;2023-06-22T02:55:05;13.70;99.90
35531;DHT22;21637;53.352;-6.356;2023-06-22T02:57:33;13.60;99.90
35531;DHT22;21637;53.352;-6.356;2023-06-22T02:59:59;13.50;99.90
35531;DHT22;21637;53.352;-6.356;2023-06-22T03:02:25;13.50;99.90
35531;DHT22;21637;53.352;-6.356;2023-06-22T03:04:52;13.50;99.90
35531;DHT22;21637;53.352;-6.356;2023-06-22T03:07:22;13.50;99.90
35531;DHT22;21637;53.352;-6.356;2023-06-22T03:09:47;13.50;99.90
35531;DHT22;21637;53.352;-6.356;2023-06-22T03:12:13;13.40;99.90
35531;DHT22;21637;53.352;-6.356;2023-06-22T03:14:39;13.30;99.90
35531;DHT22;21637;53.352;-6.356;2023-06-22T03:17:05;13.30;99.90
35531;DHT22;21637;53.352;-6.356;2023-06-22T03:19:31;13.30;99.90
35531;DHT22;21637;53.352;-6.356;2023-06-22T03:21:59;13.20;99.90
35531;DHT22;21637;53.352;-6.356;2023-06-22T03:24:25;13.20;99.90
35531;DHT22;21637;53.352;-6.356;2023-06-22T03:26:51;13.10;99.90
35531;DHT22;21637;53.352;-6.356;2023-06-22T03:29:16;13.20;99.90
35531;DHT22;21637;53.352;-6.356;2023-06-22T03:31:42;13.30;99.90
35531;DHT22;21637;53.352;-6.356;2023-06-22T03:34:08;13.30;99.90
35531;DHT22;21637;53.352;-6.356;2023-06-22T03:36:33;13.20;99.90
35531;DHT22;21637;53.352;-6.356;2023-06-22T03:38:59;13.20;99.90
35531;DHT22;21637;53.352;-6.356;2023-06-22T03:41:25;13.20;99.90
35531;DHT22;21637;53.352;-6.356;2023-06-22T03:43:51;13.10;99.90
35531;DHT22;21637;53.352;-6.356;2023-06-22T03:46:16;13.00;99.90
35531;DHT22;21637;53.352;-6.356;2023-06-22T03:48:42;13.00;99.90
35531;DHT22;21637;53.352;-6.356;2023-06-22T03:51:08;13.10;99.90
35531;DHT22;21637;53.352;-6.356;2023-06-22T03:53:34;13.00;99.90
35531;DHT22;21637;53.352;-6.356;2023-06-22T03:55:59;13.00;99.90
35531;DHT22;21637;53.352;-6.356;2023-06-22T03:58:25;13.10;99.90
35531;DHT22;21637;53.352;-6.356;2023-06-22T04:00:52;13.10;99.90
35531;DHT22;21637;53.352;-6.356;2023-06-22T04:03:18;13.10;99.90
35531;DHT22;21637;53.352;-6.356;2023-06-22T04:05:45;13.10;99.90
35531;DHT22;21637;53.352;-6.356;2023-06-22T04:08:12;13.10;99.90
35531;DHT22;21637;53.352;-6.356;2023-06-22T04:10:38;13.00;99.90
35531;DHT22;21637;53.352;-6.356;2023-06-22T04:13:04;13.00;99.90
35531;DHT22;21637;53.352;-6.356;2023-06-22T04:15:29;13.00;99.90
35531;DHT22;21637;53.352;-6.356;2023-06-22T04:17:55;13.00;99.90
35531;DHT22;21637;53.352;-6.356;2023-06-22T04:20:22;13.00;99.90
35531;DHT22;21637;53.352;-6.356;2023-06-22T04:22:54;13.00;99.90
35531;DHT22;21637;53.352;-6.356;2023-06-22T04:25:20;13.00;99.90
35531;DHT22;21637;53.352;-6.356;2023-06-22T04:27:46;13.00;99.90
35531;DHT22;21637;53.352;-6.356;2023-06-22T04:30:12;13.00;99.90
35531;DHT22;21637;53.352;-6.356;2023-06-22T04:32:40;12.90;99.90
35531;DHT22;21637;53.352;-6.356;2023-06-22T04:35:06;12.90;99.90
35531;DHT22;21637;53.352;-6.356;2023-06-22T04:37:33;12.90;99.90
35531;DHT22;21637;53.352;-6.356;2023-06-22T04:39:59;12.90;99.90
35531;DHT22;21637;53.352;-6.356;2023-06-22T04:42:27;13.00;99.90
35531;DHT22;21637;53.352;-6.356;2023-06-22T04:44:53;13.00;99.90
35531;DHT22;21637;53.352;-6.356;2023-06-22T04:47:19;13.10;99.90
35531;DHT22;21637;53.352;-6.356;2023-06-22T04:49:45;13.20;99.90
35531;DHT22;21637;53.352;-6.356;2023-06-22T04:52:12;13.20;99.90
35531;DHT22;21637;53.352;-6.356;2023-06-22T04:54:40;13.10;99.90
35531;DHT22;21637;53.352;-6.356;2023-06-22T04:57:13;13.30;99.90
35531;DHT22;21637;53.352;-6.356;2023-06-22T04:59:40;13.40;99.90
35531;DHT22;21637;53.352;-6.356;2023-06-22T05:02:07;13.50;99.90
35531;DHT22;21637;53.352;-6.356;2023-06-22T05:04:34;13.60;99.90
35531;DHT22;21637;53.352;-6.356;2023-06-22T05:07:01;13.70;99.90
35531;DHT22;21637;53.352;-6.356;2023-06-22T05:09:28;13.80;99.90
35531;DHT22;21637;53.352;-6.356;2023-06-22T05:11:54;13.90;99.90
35531;DHT22;21637;53.352;-6.356;2023-06-22T05:14:22;14.00;99.90
35531;DHT22;21637;53.352;-6.356;2023-06-22T05:16:48;14.10;99.90
35531;DHT22;21637;53.352;-6.356;2023-06-22T05:19:14;14.30;99.90
35531;DHT22;21637;53.352;-6.356;2023-06-22T05:21:40;14.40;99.90
35531;DHT22;21637;53.352;-6.356;2023-06-22T05:24:06;14.50;99.90
35531;DHT22;21637;53.352;-6.356;2023-06-22T05:26:33;14.60;99.90
35531;DHT22;21637;53.352;-6.356;2023-06-22T05:29:03;14.60;99.90
35531;DHT22;21637;53.352;-6.356;2023-06-22T05:31:29;14.70;99.90
35531;DHT22;21637;53.352;-6.356;2023-06-22T05:33:55;14.80;99.90
35531;DHT22;21637;53.352;-6.356;2023-06-22T05:36:21;14.90;99.90
35531;DHT22;21637;53.352;-6.356;2023-06-22T05:38:51;15.00;99.90
35531;DHT22;21637;53.352;-6.356;2023-06-22T05:41:17;15.20;99.90
35531;DHT22;21637;53.352;-6.356;2023-06-22T05:43:43;15.30;99.90
35531;DHT22;21637;53.352;-6.356;2023-06-22T05:46:08;15.40;99.90
35531;DHT22;21637;53.352;-6.356;2023-06-22T05:48:34;15.50;99.90
35531;DHT22;21637;53.352;-6.356;2023-06-22T05:51:00;15.50;99.90
35531;DHT22;21637;53.352;-6.356;2023-06-22T05:53:26;15.70;99.90
35531;DHT22;21637;53.352;-6.356;2023-06-22T05:55:51;15.80;99.90
35531;DHT22;21637;53.352;-6.356;2023-06-22T05:58:17;15.90;99.90
35531;DHT22;21637;53.352;-6.356;2023-06-22T06:00:43;16.00;99.90
35531;DHT22;21637;53.352;-6.356;2023-06-22T06:03:09;16.10;99.90
35531;DHT22;21637;53.352;-6.356;2023-06-22T06:05:36;16.40;99.90
35531;DHT22;21637;53.352;-6.356;2023-06-22T06:08:03;16.60;99.90
35531;DHT22;21637;53.352;-6.356;2023-06-22T06:10:33;16.70;99.90
35531;DHT22;21637;53.352;-6.356;2023-06-22T06:12:59;16.80;99.90
35531;DHT22;21637;53.352;-6.356;2023-06-22T06:15:28;16.80;99.90
35531;DHT22;21637;53.352;-6.356;2023-06-22T06:17:54;16.80;99.90
35531;DHT22;21637;53.352;-6.356;2023-06-22T06:20:24;16.90;99.90
35531;DHT22;21637;53.352;-6.356;2023-06-22T06:22:50;17.00;99.90
35531;DHT22;21637;53.352;-6.356;2023-06-22T06:25:16;17.10;99.90
35531;DHT22;21637;53.352;-6.356;2023-06-22T06:27:43;17.30;99.90
35531;DHT22;21637;53.352;-6.356;2023-06-22T06:30:13;17.50;99.90
35531;DHT22;21637;53.352;-6.356;2023-06-22T06:32:41;17.60;99.90
35531;DHT22;21637;53.352;-6.356;2023-06-22T06:35:08;17.80;99.90
35531;DHT22;21637;53.352;-6.356;2023-06-22T06:37:41;17.80;99.90
35531;DHT22;21637;53.352;-6.356;2023-06-22T06:40:08;17.90;99.90
35531;DHT22;21637;53.352;-6.356;2023-06-22T06:42:38;18.10;99.90
35531;DHT22;21637;53.352;-6.356;2023-06-22T06:45:06;18.20;99.90
35531;DHT22;21637;53.352;-6.356;2023-06-22T06:47:32;18.30;99.90
35531;DHT22;21637;53.352;-6.356;2023-06-22T06:49:58;18.50;99.90
35531;DHT22;21637;53.352;-6.356;2023-06-22T06:52:24;18.60;99.90
35531;DHT22;21637;53.352;-6.356;2023-06-22T06:54:49;18.70;99.90
35531;DHT22;21637;53.352;-6.356;2023-06-22T06:57:20;18.80;99.90
35531;DHT22;21637;53.352;-6.356;2023-06-22T06:59:46;18.90;99.90
35531;DHT22;21637;53.352;-6.356;2023-06-22T07:02:11;19.00;99.90
35531;DHT22;21637;53.352;-6.356;2023-06-22T07:04:37;19.00;99.90
35531;DHT22;21637;53.352;-6.356;2023-06-22T07:07:03;18.80;99.90
35531;DHT22;21637;53.352;-6.356;2023-06-22T07:09:29;18.90;99.90
35531;DHT22;21637;53.352;-6.356;2023-06-22T07:11:54;18.70;99.90
35531;DHT22;21637;53.352;-6.356;2023-06-22T07:14:20;18.80;99.90
35531;DHT22;21637;53.352;-6.356;2023-06-22T07:16:46;18.80;99.90
35531;DHT22;21637;53.352;-6.356;2023-06-22T07:19:12;19.00;99.90
35531;DHT22;21637;53.352;-6.356;2023-06-22T07:21:40;19.00;99.90
35531;DHT22;21637;53.352;-6.356;2023-06-22T07:24:06;18.90;99.90
35531;DHT22;21637;53.352;-6.356;2023-06-22T07:26:33;19.10;99.90
35531;DHT22;21637;53.352;-6.356;2023-06-22T07:28:59;19.30;99.90
35531;DHT22;21637;53.352;-6.356;2023-06-22T07:31:25;19.50;99.90
35531;DHT22;21637;53.352;-6.356;2023-06-22T07:33:51;19.60;99.90
35531;DHT22;21637;53.352;-6.356;2023-06-22T07:36:18;19.80;99.90
35531;DHT22;21637;53.352;-6.356;2023-06-22T07:38:44;19.90;99.90
35531;DHT22;21637;53.352;-6.356;2023-06-22T07:41:10;19.80;99.90
35531;DHT22;21637;53.352;-6.356;2023-06-22T07:43:35;19.90;99.90
35531;DHT22;21637;53.352;-6.356;2023-06-22T07:46:05;20.00;99.90
35531;DHT22;21637;53.352;-6.356;2023-06-22T07:48:31;19.90;99.90
35531;DHT22;21637;53.352;-6.356;2023-06-22T07:50:57;20.00;99.90
35531;DHT22;21637;53.352;-6.356;2023-06-22T07:53:23;20.10;99.90
35531;DHT22;21637;53.352;-6.356;2023-06-22T07:55:49;20.10;99.90
35531;DHT22;21637;53.352;-6.356;2023-06-22T07:58:15;20.20;99.90
35531;DHT22;21637;53.352;-6.356;2023-06-22T08:00:41;20.30;99.90
35531;DHT22;21637;53.352;-6.356;2023-06-22T08:03:07;20.30;99.90
35531;DHT22;21637;53.352;-6.356;2023-06-22T08:05:33;20.40;99.90
35531;DHT22;21637;53.352;-6.356;2023-06-22T08:07:58;20.50;99.90
35531;DHT22;21637;53.352;-6.356;2023-06-22T08:10:24;20.50;99.90
35531;DHT22;21637;53.352;-6.356;2023-06-22T08:12:51;20.40;99.90
35531;DHT22;21637;53.352;-6.356;2023-06-22T08:15:18;20.40;99.90
35531;DHT22;21637;53.352;-6.356;2023-06-22T08:17:44;20.40;99.90
35531;DHT22;21637;53.352;-6.356;2023-06-22T08:20:11;20.40;99.90
35531;DHT22;21637;53.352;-6.356;2023-06-22T08:22:41;20.50;99.90
35531;DHT22;21637;53.352;-6.356;2023-06-22T08:25:08;20.50;99.90
35531;DHT22;21637;53.352;-6.356;2023-06-22T08:27:34;20.60;99.90
35531;DHT22;21637;53.352;-6.356;2023-06-22T08:30:01;20.70;99.90
35531;DHT22;21637;53.352;-6.356;2023-06-22T08:32:29;20.70;99.90
35531;DHT22;21637;53.352;-6.356;2023-06-22T08:34:56;20.80;99.90
35531;DHT22;21637;53.352;-6.356;2023-06-22T08:37:22;20.70;99.90
35531;DHT22;21637;53.352;-6.356;2023-06-22T08:39:59;20.90;99.90
35531;DHT22;21637;53.352;-6.356;2023-06-22T08:42:26;20.90;99.90
35531;DHT22;21637;53.352;-6.356;2023-06-22T08:44:52;21.00;99.90
35531;DHT22;21637;53.352;-6.356;2023-06-22T08:47:19;21.00;99.90
35531;DHT22;21637;53.352;-6.356;2023-06-22T08:49:45;21.10;99.90
35531;DHT22;21637;53.352;-6.356;2023-06-22T08:52:12;21.20;99.90
35531;DHT22;21637;53.352;-6.356;2023-06-22T08:54:38;21.20;99.90
35531;DHT22;21637;53.352;-6.356;2023-06-22T08:57:04;21.20;99.90
35531;DHT22;21637;53.352;-6.356;2023-06-22T08:59:30;21.20;99.90
35531;DHT22;21637;53.352;-6.356;2023-06-22T09:01:56;21.20;99.90
35531;DHT22;21637;53.352;-6.356;2023-06-22T09:04:22;21.10;99.90
35531;DHT22;21637;53.352;-6.356;2023-06-22T09:06:48;21.00;99.90
35531;DHT22;21637;53.352;-6.356;2023-06-22T09:09:16;21.00;99.90
35531;DHT22;21637;53.352;-6.356;2023-06-22T09:11:42;21.10;99.90
35531;DHT22;21637;53.352;-6.356;2023-06-22T09:14:08;21.20;99.90
35531;DHT22;21637;53.352;-6.356;2023-06-22T09:16:34;21.30;99.90
35531;DHT22;21637;53.352;-6.356;2023-06-22T09:19:00;21.40;99.90
35531;DHT22;21637;53.352;-6.356;2023-06-22T09:21:26;21.50;99.90
35531;DHT22;21637;53.352;-6.356;2023-06-22T09:23:52;21.60;99.90
35531;DHT22;21637;53.352;-6.356;2023-06-22T09:26:18;21.60;99.90
35531;DHT22;21637;53.352;-6.356;2023-06-22T09:28:44;21.70;99.90
35531;DHT22;21637;53.352;-6.356;2023-06-22T09:31:10;21.70;99.90
35531;DHT22;21637;53.352;-6.356;2023-06-22T09:33:36;21.70;99.90
35531;DHT22;21637;53.352;-6.356;2023-06-22T09:36:05;21.70;99.90
35531;DHT22;21637;53.352;-6.356;2023-06-22T09:38:35;21.60;99.90
35531;DHT22;21637;53.352;-6.356;2023-06-22T09:41:00;21.50;99.90
35531;DHT22;21637;53.352;-6.356;2023-06-22T09:43:27;21.60;99.90
35531;DHT22;21637;53.352;-6.356;2023-06-22T09:45:53;21.50;99.90
35531;DHT22;21637;53.352;-6.356;2023-06-22T09:48:19;21.60;99.90
35531;DHT22;21637;53.352;-6.356;2023-06-22T09:50:45;21.70;99.90
35531;DHT22;21637;53.352;-6.356;2023-06-22T09:53:10;21.70;99.90
35531;DHT22;21637;53.352;-6.356;2023-06-22T09:55:36;21.90;99.90
35531;DHT22;21637;53.352;-6.356;2023-06-22T09:58:02;21.90;99.90
35531;DHT22;21637;53.352;-6.356;2023-06-22T10:00:28;22.00;99.90
35531;DHT22;21637;53.352;-6.356;2023-06-22T10:02:53;22.20;99.90
35531;DHT22;21637;53.352;-6.356;2023-06-22T10:05:21;22.00;99.90
35531;DHT22;21637;53.352;-6.356;2023-06-22T10:07:47;22.00;99.90
35531;DHT22;21637;53.352;-6.356;2023-06-22T10:10:13;21.80;99.90
35531;DHT22;21637;53.352;-6.356;2023-06-22T10:12:48;21.80;99.90
35531;DHT22;21637;53.352;-6.356;2023-06-22T10:15:19;21.90;99.90
35531;DHT22;21637;53.352;-6.356;2023-06-22T10:17:46;21.80;99.90
35531;DHT22;21637;53.352;-6.356;2023-06-22T10:20:13;21.80;99.90
35531;DHT22;21637;53.352;-6.356;2023-06-22T10:22:43;21.90;99.90
35531;DHT22;21637;53.352;-6.356;2023-06-22T10:25:10;22.00;99.90
35531;DHT22;21637;53.352;-6.356;2023-06-22T10:27:36;22.00;99.90
35531;DHT22;21637;53.352;-6.356;2023-06-22T10:30:06;22.00;99.90
35531;DHT22;21637;53.352;-6.356;2023-06-22T10:32:32;22.00;99.90
35531;DHT22;21637;53.352;-6.356;2023-06-22T10:34:58;21.90;99.90
35531;DHT22;21637;53.352;-6.356;2023-06-22T10:37:24;21.70;99.90
35531;DHT22;21637;53.352;-6.356;2023-06-22T10:39:50;21.90;99.90
35531;DHT22;21637;53.352;-6.356;2023-06-22T10:42:15;21.70;99.90
35531;DHT22;21637;53.352;-6.356;2023-06-22T10:44:41;22.00;99.90
35531;DHT22;21637;53.352;-6.356;2023-06-22T10:47:09;21.90;99.90
35531;DHT22;21637;53.352;-6.356;2023-06-22T10:49:38;22.10;99.90
35531;DHT22;21637;53.352;-6.356;2023-06-22T10:52:05;22.30;99.90
35531;DHT22;21637;53.352;-6.356;2023-06-22T10:54:32;22.30;99.90
35531;DHT22;21637;53.352;-6.356;2023-06-22T10:56:58;22.30;99.90
35531;DHT22;21637;53.352;-6.356;2023-06-22T10:59:23;22.20;99.90
35531;DHT22;21637;53.352;-6.356;2023-06-22T11:01:51;22.20;99.90
35531;DHT22;21637;53.352;-6.356;2023-06-22T11:04:17;22.10;99.90
35531;DHT22;21637;53.352;-6.356;2023-06-22T11:06:43;22.00;99.90
35531;DHT22;21637;53.352;-6.356;2023-06-22T11:09:09;21.90;99.90
35531;DHT22;21637;53.352;-6.356;2023-06-22T11:11:35;21.80;99.90
35531;DHT22;21637;53.352;-6.356;2023-06-22T11:14:00;21.80;99.90
35531;DHT22;21637;53.352;-6.356;2023-06-22T11:16:27;21.90;99.90
35531;DHT22;21637;53.352;-6.356;2023-06-22T11:18:52;21.90;99.90
35531;DHT22;21637;53.352;-6.356;2023-06-22T11:21:18;22.00;99.90
35531;DHT22;21637;53.352;-6.356;2023-06-22T11:23:44;21.80;99.90
35531;DHT22;21637;53.352;-6.356;2023-06-22T11:26:10;21.90;99.90
35531;DHT22;21637;53.352;-6.356;2023-06-22T11:28:36;21.90;99.90
35531;DHT22;21637;53.352;-6.356;2023-06-22T11:31:02;21.70;99.90
35531;DHT22;21637;53.352;-6.356;2023-06-22T11:33:29;21.50;99.90
35531;DHT22;21637;53.352;-6.356;2023-06-22T11:35:54;21.50;99.90
35531;DHT22;21637;53.352;-6.356;2023-06-22T11:38:22;21.30;99.90
35531;DHT22;21637;53.352;-6.356;2023-06-22T11:40:47;21.30;99.90
35531;DHT22;21637;53.352;-6.356;2023-06-22T11:43:13;21.40;99.90
35531;DHT22;21637;53.352;-6.356;2023-06-22T11:45:40;21.40;99.90
35531;DHT22;21637;53.352;-6.356;2023-06-22T11:48:06;21.50;99.90
35531;DHT22;21637;53.352;-6.356;2023-06-22T11:50:32;21.50;99.90
35531;DHT22;21637;53.352;-6.356;2023-06-22T11:53:02;21.50;99.90
35531;DHT22;21637;53.352;-6.356;2023-06-22T11:55:28;21.50;99.90
35531;DHT22;21637;53.352;-6.356;2023-06-22T11:57:56;21.60;99.90
35531;DHT22;21637;53.352;-6.356;2023-06-22T12:00:24;21.50;99.90
35531;DHT22;21637;53.352;-6.356;2023-06-22T12:02:52;21.60;99.90
35531;DHT22;21637;53.352;-6.356;2023-06-22T12:05:20;21.50;99.90
35531;DHT22;21637;53.352;-6.356;2023-06-22T12:07:46;21.60;99.90
35531;DHT22;21637;53.352;-6.356;2023-06-22T12:10:12;21.60;99.90
35531;DHT22;21637;53.352;-6.356;2023-06-22T12:12:38;21.60;99.90
35531;DHT22;21637;53.352;-6.356;2023-06-22T12:15:04;21.50;99.90
35531;DHT22;21637;53.352;-6.356;2023-06-22T12:17:31;21.50;99.90
35531;DHT22;21637;53.352;-6.356;2023-06-22T12:19:57;21.50;99.90
35531;DHT22;21637;53.352;-6.356;2023-06-22T12:22:22;21.70;99.90
35531;DHT22;21637;53.352;-6.356;2023-06-22T12:24:48;21.70;99.90
35531;DHT22;21637;53.352;-6.356;2023-06-22T12:27:15;21.50;99.90
35531;DHT22;21637;53.352;-6.356;2023-06-22T12:29:45;21.40;99.90
35531;DHT22;21637;53.352;-6.356;2023-06-22T12:32:10;21.10;99.90
35531;DHT22;21637;53.352;-6.356;2023-06-22T12:34:38;21.20;99.90
35531;DHT22;21637;53.352;-6.356;2023-06-22T12:37:05;21.20;99.90
35531;DHT22;21637;53.352;-6.356;2023-06-22T12:39:31;21.10;99.90
35531;DHT22;21637;53.352;-6.356;2023-06-22T12:41:57;21.10;99.90
35531;DHT22;21637;53.352;-6.356;2023-06-22T12:44:23;20.90;99.90
35531;DHT22;21637;53.352;-6.356;2023-06-22T12:46:49;21.00;99.90
35531;DHT22;21637;53.352;-6.356;2023-06-22T12:49:15;21.00;99.90
35531;DHT22;21637;53.352;-6.356;2023-06-22T12:51:41;21.20;99.90
35531;DHT22;21637;53.352;-6.356;2023-06-22T12:54:10;21.30;99.90
35531;DHT22;21637;53.352;-6.356;2023-06-22T12:56:37;21.30;99.90
35531;DHT22;21637;53.352;-6.356;2023-06-22T12:59:04;21.30;99.90
35531;DHT22;21637;53.352;-6.356;2023-06-22T13:01:30;21.20;99.90
35531;DHT22;21637;53.352;-6.356;2023-06-22T13:03:57;21.40;99.90
35531;DHT22;21637;53.352;-6.356;2023-06-22T13:06:23;21.40;99.90
35531;DHT22;21637;53.352;-6.356;2023-06-22T13:08:49;21.30;99.90
35531;DHT22;21637;53.352;-6.356;2023-06-22T13:11:15;21.40;99.90
35531;DHT22;21637;53.352;-6.356;2023-06-22T13:13:40;21.60;99.90
35531;DHT22;21637;53.352;-6.356;2023-06-22T13:16:07;21.60;99.90
35531;DHT22;21637;53.352;-6.356;2023-06-22T13:18:33;21.50;99.90
35531;DHT22;21637;53.352;-6.356;2023-06-22T13:21:01;21.50;99.90
35531;DHT22;21637;53.352;-6.356;2023-06-22T13:23:27;21.50;99.90
35531;DHT22;21637;53.352;-6.356;2023-06-22T13:25:53;21.50;99.90
35531;DHT22;21637;53.352;-6.356;2023-06-22T13:28:19;21.50;99.90
35531;DHT22;21637;53.352;-6.356;2023-06-22T13:30:46;21.30;99.90
35531;DHT22;21637;53.352;-6.356;2023-06-22T13:33:16;21.20;99.90
35531;DHT22;21637;53.352;-6.356;2023-06-22T13:35:42;20.90;99.90
35531;DHT22;21637;53.352;-6.356;2023-06-22T13:38:08;21.10;99.90
35531;DHT22;21637;53.352;-6.356;2023-06-22T13:40:35;21.30;99.90
35531;DHT22;21637;53.352;-6.356;2023-06-22T13:43:01;21.30;99.90
35531;DHT22;21637;53.352;-6.356;2023-06-22T13:45:26;21.30;99.90
35531;DHT22;21637;53.352;-6.356;2023-06-22T13:47:52;21.40;99.90
35531;DHT22;21637;53.352;-6.356;2023-06-22T13:50:18;21.40;99.90
35531;DHT22;21637;53.352;-6.356;2023-06-22T13:52:44;21.50;99.90
35531;DHT22;21637;53.352;-6.356;2023-06-22T13:55:10;21.60;99.90
35531;DHT22;21637;53.352;-6.356;2023-06-22T13:57:36;21.60;99.90
35531;DHT22;21637;53.352;-6.356;2023-06-22T14:00:04;21.70;99.90
35531;DHT22;21637;53.352;-6.356;2023-06-22T14:02:31;21.60;99.90
35531;DHT22;21637;53.352;-6.356;2023-06-22T14:04:56;21.60;99.90
35531;DHT22;21637;53.352;-6.356;2023-06-22T14:07:22;21.50;99.90
35531;DHT22;21637;53.352;-6.356;2023-06-22T14:09:49;21.50;99.90
35531;DHT22;21637;53.352;-6.356;2023-06-22T14:12:16;21.50;99.90
35531;DHT22;21637;53.352;-6.356;2023-06-22T14:14:43;21.60;99.90
35531;DHT22;21637;53.352;-6.356;2023-06-22T14:17:09;21.70;99.90
35531;DHT22;21637;53.352;-6.356;2023-06-22T14:19:36;21.80;99.90
35531;DHT22;21637;53.352;-6.356;2023-06-22T14:22:02;21.80;99.90
35531;DHT22;21637;53.352;-6.356;2023-06-22T14:24:28;21.70;99.90
35531;DHT22;21637;53.352;-6.356;2023-06-22T14:26:57;21.50;99.90
35531;DHT22;21637;53.352;-6.356;2023-06-22T14:29:23;21.60;99.90
35531;DHT22;21637;53.352;-6.356;2023-06-22T14:31:49;21.70;99.90
35531;DHT22;21637;53.352;-6.356;2023-06-22T14:34:15;21.70;99.90
35531;DHT22;21637;53.352;-6.356;2023-06-22T14:36:41;21.70;99.90
35531;DHT22;21637;53.352;-6.356;2023-06-22T14:39:08;21.80;99.90
35531;DHT22;21637;53.352;-6.356;2023-06-22T14:41:34;22.00;99.90
35531;DHT22;21637;53.352;-6.356;2023-06-22T14:43:59;22.00;99.90
35531;DHT22;21637;53.352;-6.356;2023-06-22T14:46:25;21.90;99.90
35531;DHT22;21637;53.352;-6.356;2023-06-22T14:48:51;22.00;99.90
35531;DHT22;21637;53.352;-6.356;2023-06-22T14:51:17;22.10;99.90
35531;DHT22;21637;53.352;-6.356;2023-06-22T14:53:43;22.10;99.90
35531;DHT22;21637;53.352;-6.356;2023-06-22T14:56:10;21.90;99.90
35531;DHT22;21637;53.352;-6.356;2023-06-22T14:58:35;21.70;99.90
35531;DHT22;21637;53.352;-6.356;2023-06-22T15:01:02;21.50;99.90
35531;DHT22;21637;53.352;-6.356;2023-06-22T15:03:29;21.40;99.90
35531;DHT22;21637;53.352;-6.356;2023-06-22T15:05:56;21.30;99.90
35531;DHT22;21637;53.352;-6.356;2023-06-22T15:08:22;21.50;99.90
35531;DHT22;21637;53.352;-6.356;2023-06-22T15:10:48;21.70;99.90
35531;DHT22;21637;53.352;-6.356;2023-06-22T15:13:14;21.70;99.90
35531;DHT22;21637;53.352;-6.356;2023-06-22T15:15:39;21.00;99.90
35531;DHT22;21637;53.352;-6.356;2023-06-22T15:18:05;20.70;99.90
35531;DHT22;21637;53.352;-6.356;2023-06-22T15:20:31;20.50;99.90